createdAt,value
2017-10-06T00:02:01.620Z,100324.64
2017-10-06T00:07:48.388Z,100318.57
2017-10-06T00:13:35.081Z,100320.32
2017-10-06T00:19:19.240Z,100323.45
2017-10-06T00:25:08.734Z,100311.59
2017-10-06T00:30:47.315Z,100320.95
2017-10-06T00:36:32.608Z,100322.36
2017-10-06T00:42:17.551Z,100329.16
2017-10-06T00:48:00.623Z,100322.13
2017-10-06T00:53:49.902Z,100324.73
2017-10-06T00:59:33.920Z,100321.63
2017-10-06T01:05:22.890Z,100318.27
2017-10-06T01:11:03.264Z,100317.52
2017-10-06T01:16:46.796Z,100313.57
2017-10-06T01:22:36.222Z,100309.06
2017-10-06T01:28:19.673Z,100311.39
2017-10-06T01:34:02.536Z,100309.17
2017-10-06T01:39:48.984Z,100307.75
2017-10-06T01:45:33.967Z,100302.95
2017-10-06T01:51:20.560Z,100307.47
2017-10-06T01:57:07.291Z,100302.02
2017-10-06T02:02:49.956Z,100297.84
2017-10-06T02:08:36.987Z,100307.39
2017-10-06T02:14:19.907Z,100297.03
2017-10-06T02:20:02.876Z,100292.36
2017-10-06T02:25:49.149Z,100288.34
2017-10-06T02:31:32.649Z,100288.55
2017-10-06T02:37:16.767Z,100277.78
2017-10-06T02:43:01.680Z,100281.50
2017-10-06T02:48:46.582Z,100280.56
2017-10-06T02:54:35.790Z,100278.64
2017-10-06T03:00:19.871Z,100280.11
2017-10-06T03:06:03.180Z,100277.36
2017-10-06T03:11:51.814Z,100266.08
2017-10-06T03:17:37.464Z,100270.22
2017-10-06T03:23:17.652Z,100275.80
2017-10-06T03:29:07.146Z,100280.39
2017-10-06T03:34:50.695Z,100280.18
2017-10-06T03:40:37.428Z,100277.20
2017-10-06T03:46:18.157Z,100271.20
2017-10-06T03:52:01.848Z,100278.08
2017-10-06T03:57:49.007Z,100280.63
2017-10-06T04:03:38.353Z,100273.40
2017-10-06T04:09:21.825Z,100276.10
2017-10-06T04:15:04.827Z,100277.20
2017-10-06T04:20:47.759Z,100280.47
2017-10-06T04:26:34.947Z,100282.48
2017-10-06T04:32:18.039Z,100286.08
2017-10-06T04:38:07.237Z,100283.15
2017-10-06T04:43:50.961Z,100283.42
2017-10-06T04:49:34.200Z,100278.50
2017-10-06T04:55:23.652Z,100278.59
2017-10-06T05:01:04.656Z,100290.08
2017-10-06T05:06:47.355Z,100277.99
2017-10-06T05:12:36.765Z,100283.15
2017-10-06T05:18:20.289Z,100297.03
2017-10-06T05:24:07.159Z,100284.31
2017-10-06T05:29:50.048Z,100297.06
2017-10-06T05:35:33.283Z,100304.09
2017-10-06T05:41:16.397Z,100299.89
2017-10-06T05:47:03.371Z,100296.05
2017-10-06T05:52:46.683Z,100301.30
2017-10-06T05:58:35.725Z,100306.70
2017-10-06T06:04:19.403Z,100302.77
2017-10-06T06:10:06.523Z,100309.43
2017-10-06T06:15:49.603Z,100312.04
2017-10-06T06:21:32.616Z,100317.23
2017-10-06T06:27:19.517Z,100323.70
2017-10-06T06:33:03.480Z,100327.25
2017-10-06T06:38:48.395Z,100335.22
2017-10-06T06:44:32.127Z,100311.83
2017-10-06T06:50:18.944Z,100318.09
2017-10-06T06:56:02.682Z,100313.48
2017-10-06T07:01:52.275Z,100339.38
2017-10-06T07:07:40.595Z,100345.45
2017-10-06T07:13:22.968Z,100344.53
2017-10-06T07:19:05.603Z,100342.55
2017-10-06T07:24:48.444Z,100355.59
2017-10-06T07:30:32.842Z,100349.34
2017-10-06T07:36:22.206Z,100360.98
2017-10-06T07:42:06.190Z,100378.43
2017-10-06T07:47:48.822Z,100381.40
2017-10-06T07:53:33.591Z,100383.98
2017-10-06T07:59:20.056Z,100398.11
2017-10-06T08:05:09.351Z,100399.30
2017-10-06T08:10:50.160Z,100406.47
2017-10-06T08:16:32.936Z,100405.51
2017-10-06T08:22:19.924Z,100399.96
2017-10-06T08:28:06.807Z,100397.09
2017-10-06T08:33:51.695Z,100410.09
2017-10-06T08:39:36.836Z,100410.92
2017-10-06T08:45:19.707Z,100420.06
2017-10-06T08:51:08.804Z,100428.52
2017-10-06T08:56:50.714Z,100433.40
2017-10-06T09:02:33.422Z,100436.77
2017-10-06T09:08:18.106Z,100430.49
2017-10-06T09:14:07.498Z,100437.85
2017-10-06T09:19:51.122Z,100458.81
2017-10-06T09:25:34.083Z,100471.02
2017-10-06T09:31:21.079Z,100470.55
2017-10-06T09:37:07.920Z,100466.88
2017-10-06T09:42:50.949Z,100452.06
2017-10-06T09:48:34.034Z,100461.97
2017-10-06T09:54:17.376Z,100461.93
2017-10-06T10:00:06.719Z,100470.01
2017-10-06T10:05:50.160Z,100479.27
2017-10-06T10:11:37.259Z,100475.13
2017-10-06T10:17:20.135Z,100487.13
2017-10-06T10:23:02.823Z,100490.27
2017-10-06T10:28:49.439Z,100497.16
2017-10-06T10:34:36.176Z,100501.51
2017-10-06T10:40:19.110Z,100518.73
2017-10-06T10:46:02.484Z,100536.50
2017-10-06T10:51:51.378Z,100559.20
2017-10-06T10:57:34.027Z,100554.84
2017-10-06T11:03:18.443Z,100566.06
2017-10-06T11:09:05.317Z,100567.23
2017-10-06T11:14:50.802Z,100562.61
2017-10-06T11:20:35.399Z,100563.48
2017-10-06T11:26:22.143Z,100565.90
2017-10-06T11:32:04.978Z,100557.20
2017-10-06T11:37:48.572Z,100561.11
2017-10-06T11:43:35.400Z,100575.82
2017-10-06T11:49:19.295Z,100581.51
2017-10-06T11:55:03.644Z,100582.61
2017-10-06T12:00:51.139Z,100593.04
2017-10-06T12:06:34.220Z,100600.75
2017-10-06T12:12:18.207Z,100597.47
2017-10-06T12:18:07.290Z,100602.42
2017-10-06T12:23:50.484Z,100606.23
2017-10-06T12:29:33.472Z,100604.81
2017-10-06T12:35:22.789Z,100610.69
2017-10-06T12:41:05.878Z,100614.53
2017-10-06T12:46:52.323Z,100604.84
2017-10-06T12:52:35.195Z,100611.38
2017-10-06T12:58:18.143Z,100635.28
2017-10-06T13:04:04.969Z,100636.76
2017-10-06T13:09:48.731Z,100628.48
2017-10-06T13:15:35.440Z,100639.97
2017-10-06T13:21:19.301Z,100650.48
2017-10-06T13:27:06.312Z,100662.38
2017-10-06T13:32:49.167Z,100670.99
2017-10-06T13:38:38.188Z,100677.58
2017-10-06T13:44:21.502Z,100680.52
2017-10-06T13:50:08.126Z,100676.15
2017-10-06T13:55:51.032Z,100683.48
2017-10-06T14:01:37.783Z,100678.45
2017-10-06T14:07:20.485Z,100686.31
2017-10-06T14:13:03.348Z,100682.90
2017-10-06T14:18:52.554Z,100690.28
2017-10-06T14:24:36.683Z,100703.61
2017-10-06T14:30:21.680Z,100710.98
2017-10-06T14:36:11.083Z,100693.08
2017-10-06T14:41:54.572Z,100685.90
2017-10-06T14:47:37.732Z,100681.43
2017-10-06T14:53:20.648Z,100717.23
2017-10-06T14:59:07.571Z,100728.11
2017-10-06T15:04:50.302Z,100729.83
2017-10-06T15:10:39.195Z,100727.00
2017-10-06T15:16:22.757Z,100730.78
2017-10-06T15:22:09.565Z,100732.58
2017-10-06T15:27:52.191Z,100739.02
2017-10-06T15:33:35.227Z,100748.59
2017-10-06T15:39:20.354Z,100762.02
2017-10-06T15:45:03.404Z,100767.84
2017-10-06T15:50:52.074Z,100776.36
2017-10-06T15:56:35.284Z,100793.50
2017-10-06T16:02:17.948Z,100798.39
2017-10-06T16:08:07.182Z,100798.74
2017-10-06T16:13:50.504Z,100809.45
2017-10-06T16:19:37.123Z,100809.37
2017-10-06T16:25:20.095Z,100824.01
2017-10-06T16:31:09.358Z,100832.73
2017-10-06T16:36:52.580Z,100839.30
2017-10-06T16:42:35.767Z,100861.85
2017-10-06T16:48:22.592Z,100858.56
2017-10-06T16:54:05.372Z,100873.00
2017-10-06T16:59:52.036Z,100876.58
2017-10-06T17:46:06.636Z,100974.05
2017-10-06T17:51:55.464Z,100977.66
2017-10-06T18:50:07.686Z,101052.70
2017-10-06T18:55:52.425Z,101059.01
2017-10-06T19:01:35.129Z,101053.38
2017-10-06T19:07:20.049Z,101056.25
2017-10-06T19:13:06.672Z,101059.06
2017-10-06T19:18:49.602Z,101059.97
2017-10-06T19:24:38.925Z,101063.13
2017-10-06T19:30:22.095Z,101068.86
2017-10-06T19:36:06.996Z,101073.91
2017-10-06T19:41:51.707Z,101074.35
2017-10-06T19:47:36.416Z,101079.59
2017-10-06T19:53:19.601Z,101087.46
2017-10-06T19:59:04.280Z,101087.67
2017-10-06T20:04:50.984Z,101092.48
2017-10-06T20:10:37.641Z,101107.02
2017-10-06T20:16:21.735Z,101098.77
2017-10-06T20:22:06.208Z,101110.47
2017-10-06T20:27:49.368Z,101119.88
2017-10-06T20:33:38.461Z,101129.66
2017-10-06T20:39:21.663Z,101136.37
2017-10-06T20:45:04.584Z,101144.09
2017-10-06T20:50:51.659Z,101147.95
2017-10-06T20:56:41.045Z,101150.47
2017-10-06T21:02:24.196Z,101149.02
2017-10-06T21:08:07.107Z,101155.37
2017-10-06T21:13:49.871Z,101152.06
2017-10-06T21:19:39.077Z,101155.80
2017-10-06T21:25:22.224Z,101161.45
2017-10-06T21:31:07.377Z,101161.54
2017-10-06T21:36:51.912Z,101170.50
2017-10-06T21:42:34.515Z,101171.75
2017-10-06T21:48:21.447Z,101173.75
2017-10-06T21:54:08.099Z,101168.21
2017-10-06T21:59:50.488Z,101173.26
2017-10-06T22:05:35.128Z,101171.39
2017-10-06T22:11:24.611Z,101168.93
2017-10-06T22:17:07.647Z,101173.52
2017-10-06T22:22:50.422Z,101174.02
2017-10-06T22:28:34.877Z,101179.23
2017-10-06T22:34:21.551Z,101183.39
2017-10-06T22:40:08.335Z,101175.63
2017-10-06T22:45:51.903Z,101191.01
2017-10-06T22:51:40.423Z,101184.37
2017-10-06T22:57:23.390Z,101185.34
2017-10-06T23:03:10.043Z,101192.14
2017-10-06T23:08:49.886Z,101191.30
2017-10-06T23:14:38.500Z,101191.77
2017-10-06T23:20:25.135Z,101197.62
2017-10-06T23:26:08.087Z,101203.88
2017-10-06T23:31:51.926Z,101198.03
2017-10-06T23:37:35.346Z,101199.34
2017-10-06T23:43:22.186Z,101183.67
2017-10-06T23:49:11.525Z,101179.69
2017-10-06T23:54:55.026Z,101181.67
